• Join FlightAware (Why Join?)
  • Login
  • US Flag 
10:32AM EST


 

Airport Tracker/Info


-or-


 

Live Flight TrackerFlight Track Log ✈ BER8752 ✈ 19-Apr-2013 ✈ EDDT / TXL - LOWW / VIE

Flight Track Log - Related Links

Times and Time Zones

All times are in EDT time to prevent confusion due to time zone crossing. See the BER8752 flight status page for this flight to view local times or setup timezone preferences in your user account.

Time Position Orientation Groundspeed Altitude Reporting Facility
EDT Latitude Longitude Course Direction KTS MPH feet Rate Location/Type
03:37PM 51.2720 14.3098 154° Southeast  Level Estimated
03:38PM 51.1797 14.3806 154° Southeast  Level Estimated
03:39PM 51.0873 14.4511 154° Southeast  Level Estimated
03:40PM 50.9949 14.5213 154° Southeast  Level Estimated
03:41PM 50.9025 14.5913 154° Southeast  Level Estimated
03:42PM 50.8100 14.6610 155° Southeast  Level Estimated
03:43PM 50.7175 14.7304 155° Southeast  Level Estimated
03:44PM 50.6249 14.7995 155° Southeast  Level Estimated
03:45PM 50.5323 14.8684 155° Southeast  Level Estimated
03:46PM 50.4397 14.9370 155° Southeast  Level Estimated
03:47PM 50.3470 15.0053 155° Southeast  Level Estimated
03:48PM 50.2543 15.0733 155° Southeast  Level Estimated
03:49PM 50.1615 15.1411 155° Southeast  Level Estimated
03:50PM 50.0687 15.2087 155° Southeast  Level Estimated
03:51PM 49.9759 15.2759 155° Southeast  Level Estimated
03:52PM 49.8830 15.3429 155° Southeast  Level Estimated
03:53PM 49.7901 15.4097 155° Southeast  Level Estimated
03:54PM 49.6971 15.4762 155° Southeast  Level Estimated
03:55PM 49.6041 15.5424 155° Southeast  Level Estimated
03:56PM 49.5111 15.6084 155° Southeast  Level Estimated
03:57PM 49.4180 15.6742 155° Southeast  Level Estimated
03:58PM 49.3249 15.7396 155° Southeast  Level Estimated
03:59PM 49.2318 15.8049 155° Southeast  Level Estimated
04:00PM 49.1386 15.8699 155° Southeast  Level Estimated
04:01PM 49.0454 15.9346 156° South  Level Estimated
04:02PM 48.9521 15.9991 156° South  Level Estimated
04:03PM 48.8588 16.0634 156° South  Level Estimated
04:04PM 48.7655 16.1274 156° South  Level Estimated
04:05PM 48.6721 16.1912 156° South  Level Estimated
04:06PM 48.5787 16.2548 156° South  Level Estimated
04:07PM 48.4853 16.3181 156° South  Level Estimated
04:08PM 48.3918 16.3812 156° South  Level Estimated
04:09PM 48.2983 16.4441 156° South  Level Estimated
04:10PM 48.2048 16.5067 156° South  Level Estimated
04:11PM 48.1112 16.5691 156° South  Level Estimated
04:12PM 48.1103 16.5697 156° South  Level Estimated
04:13PM 48.1103 16.5697 146° Southeast  Level Estimated
04:14PM 48.1103 16.5697 146° Southeast  Level Estimated
04:15PM 48.1103 16.5697 146° Southeast  Level Estimated
04:16PM 48.1103 16.5697 146° Southeast  Level Estimated
04:17PM 48.1103 16.5697 146° Southeast  Level Estimated
04:18PM 48.1103 16.5697 146° Southeast  Level Estimated
04:19PM 48.1103 16.5697 146° Southeast  Level Estimated
04:20PM 48.1103 16.5697 146° Southeast  Level Estimated
04:21PM 48.1103 16.5697 146° Southeast  Level Estimated
04:22PM 48.1103 16.5697 146° Southeast  Level Estimated
04:23PM 48.1103 16.5697 146° Southeast  Level Estimated
04:24PM 48.1103 16.5697 146° Southeast  Level Estimated
04:25PM 48.1103 16.5697 146° Southeast  Level Estimated
04:26PM 48.1103 16.5697 146° Southeast  Level Estimated
04:27PM 48.1103 16.5697 146° Southeast  Level Estimated